Historyczne dane pomiarowe

Dodano dane terminowe – wersja testowa.

Dane z okresu 1951-2019

Wersja bazy: 1.34 [2019-03-16, lista zmian], aktualizacja planowana na 2019-04-15

Dane meteo z obszaru Polski uzyskane na podstawie danych udostępnionych przez Instytut Meteorologii i Gospodarki Wodnej – Państwowy Instytut Badawczy.

 

Wybierz Datę:    

       

TemperaturaWilgotnośćWiatrCiśnienieOpadyŚniegCzas trwania zjawisk
 Stacja t tx tn tng RH VA  wxwx mslp ppp RRR   cm mm wxwxwxwxwxwxwx
1957-03-18 3.2 6.7 -5.1- 91.3- 8.0 1.7---- 1.8-- 8---------
1957-03-19 -0.2 3.9 -0.8- 83.0- 5.7 0.7---- 0.0------------
1957-03-20 0.4 2.0 -1.7- 87.5- 7.7 1.3---- 1.4------------
1957-03-21 6.2 12.4 0.5- 79.5- 3.0 6.7---- 0.0------------
1957-03-22 4.4 9.7 1.2- 77.3- 1.3 2.0---- 0.0------------
1957-03-23 2.0 10.1 -2.0- 78.5- 2.7 2.0---- 0.0------------
1957-03-24 -0.9 3.2 -5.7- 72.0- 0.0 5.0---- 0.0------------
1957-03-25 1.0 4.5 -3.8- 75.8- 2.0 7.0---- 0.0------------
1957-03-26 3.4 8.6 -0.8- 62.3- 0.0 4.3---- 0.0------------
1957-03-27 6.6 13.7 -0.8- 62.5- 0.0 3.0---- 0.0------------
1957-03-28 7.1 14.1 0.0- 57.0- 0.0 2.7---- 0.2------------
1957-03-29 5.2 8.3 3.9- 90.3- 5.3 0.0---- 0.0------------
1957-03-30 7.1 15.1 -1.6- 78.0- 0.3 0.3---- 0.0------------
1957-03-31 7.4 17.3 0.5- 61.5- 0.0 0.3---- 0.0------------
1957-04-01 9.4 17.0 -0.8- 56.0- 0.0 1.0---- 0.0------------
1957-04-02 7.9 17.7 0.4- 70.8- 0.0 0.3---- 0.0------------
1957-04-03 9.2 18.8 0.2- 63.8- 0.0 0.3---- 0.0------------
1957-04-04 8.6 17.7 0.3- 60.8- 0.0 1.0---- 0.0------------
1957-04-05 9.0 18.7 -1.2- 59.3- 0.0 0.3---- 0.0------------
1957-04-06 10.8 18.7 -1.4- 61.5- 1.0 1.7---- 1.1------------
1957-04-07 4.2 10.9 0.8- 72.5- 3.0 3.0---- 0.0------------
1957-04-08 2.0 6.4 -3.4- 74.5- 3.7 2.3---- 0.0------------
1957-04-09 -0.2 4.3 -3.0- 82.3- 1.7 2.7---- 0.0------------
1957-04-10 4.5 9.3 -7.5- 62.0- 2.7 4.7---- 0.0------------
1957-04-11 4.3 11.1 1.0- 64.5- 5.0 5.0---- 0.0------------
1957-04-12 -0.5 4.6 -2.6- 85.5- 3.3 1.3---- 0.0------------
1957-04-13 0.7 7.3 -4.5- 78.5- 2.7 1.0---- 1.6------------
1957-04-14 0.2 5.1 -5.8- 77.0- 3.3 0.3---- 0.0------------
1957-04-15 0.8 4.5 -2.5- 73.8- 3.3 0.7---- 1.2------------
1957-04-16 2.8 7.9 -6.9- 78.3- 2.7 2.0---- 1.7-- 1---------
133.1 ms

 

Źródłem pochodzenia danych jest Instytut Meteorologii i Gospodarki Wodnej – Państwowy Instytut Badawczy. Dane Instytutu Meteorologii i Gospodarki Wodnej – Państwowego Instytutu Badawczego zostały przetworzone.

Dane źródłowe można odnaleźć na stronie https://dane.imgw.pl